sensor_id;sensor_type;location;lat;lon;timestamp;temperature;humidity
22680;DHT22;11507;44.858;10.374;2023-09-19T00:00:46;19.20;99.90
22680;DHT22;11507;44.858;10.374;2023-09-19T00:03:13;19.10;99.90
22680;DHT22;11507;44.858;10.374;2023-09-19T00:05:39;19.10;99.90
22680;DHT22;11507;44.858;10.374;2023-09-19T00:08:07;19.10;99.90
22680;DHT22;11507;44.858;10.374;2023-09-19T00:10:34;19.10;99.90
22680;DHT22;11507;44.858;10.374;2023-09-19T00:13:03;19.10;99.90
22680;DHT22;11507;44.858;10.374;2023-09-19T00:15:38;19.00;99.90
22680;DHT22;11507;44.858;10.374;2023-09-19T00:18:05;19.10;99.90
22680;DHT22;11507;44.858;10.374;2023-09-19T00:20:38;19.00;99.90
22680;DHT22;11507;44.858;10.374;2023-09-19T00:23:05;18.90;99.90
22680;DHT22;11507;44.858;10.374;2023-09-19T00:25:31;18.80;99.90
22680;DHT22;11507;44.858;10.374;2023-09-19T00:28:01;18.80;99.90
22680;DHT22;11507;44.858;10.374;2023-09-19T00:30:28;18.70;99.90
22680;DHT22;11507;44.858;10.374;2023-09-19T00:32:54;18.70;99.90
22680;DHT22;11507;44.858;10.374;2023-09-19T00:35:23;18.60;99.90
22680;DHT22;11507;44.858;10.374;2023-09-19T00:37:51;18.60;99.90
22680;DHT22;11507;44.858;10.374;2023-09-19T00:40:17;18.60;99.90
22680;DHT22;11507;44.858;10.374;2023-09-19T00:42:44;18.60;99.90
22680;DHT22;11507;44.858;10.374;2023-09-19T00:45:13;18.70;99.90
22680;DHT22;11507;44.858;10.374;2023-09-19T00:47:45;18.70;99.90
22680;DHT22;11507;44.858;10.374;2023-09-19T00:50:13;18.80;99.90
22680;DHT22;11507;44.858;10.374;2023-09-19T00:52:42;18.80;99.90
22680;DHT22;11507;44.858;10.374;2023-09-19T00:55:10;18.80;99.90
22680;DHT22;11507;44.858;10.374;2023-09-19T00:57:38;18.80;99.90
22680;DHT22;11507;44.858;10.374;2023-09-19T01:00:06;18.80;99.90
22680;DHT22;11507;44.858;10.374;2023-09-19T01:02:34;18.80;99.90
22680;DHT22;11507;44.858;10.374;2023-09-19T01:05:01;18.80;99.90
22680;DHT22;11507;44.858;10.374;2023-09-19T01:07:30;18.80;99.90
22680;DHT22;11507;44.858;10.374;2023-09-19T01:09:57;18.80;99.90
22680;DHT22;11507;44.858;10.374;2023-09-19T01:15:51;18.80;99.90
22680;DHT22;11507;44.858;10.374;2023-09-19T01:21:15;18.70;99.90
22680;DHT22;11507;44.858;10.374;2023-09-19T01:30:16;18.60;99.90
22680;DHT22;11507;44.858;10.374;2023-09-19T01:32:43;18.60;99.90
22680;DHT22;11507;44.858;10.374;2023-09-19T01:35:11;18.70;99.90
22680;DHT22;11507;44.858;10.374;2023-09-19T01:37:39;18.80;99.90
22680;DHT22;11507;44.858;10.374;2023-09-19T01:40:08;18.80;99.90
22680;DHT22;11507;44.858;10.374;2023-09-19T01:43:03;18.90;99.90
22680;DHT22;11507;44.858;10.374;2023-09-19T01:51:22;19.10;99.90
22680;DHT22;11507;44.858;10.374;2023-09-19T01:54:02;19.10;99.90
22680;DHT22;11507;44.858;10.374;2023-09-19T01:56:34;19.10;99.90
22680;DHT22;11507;44.858;10.374;2023-09-19T01:59:07;19.10;99.90
22680;DHT22;11507;44.858;10.374;2023-09-19T02:01:37;19.10;99.90
22680;DHT22;11507;44.858;10.374;2023-09-19T02:04:04;19.00;99.90
22680;DHT22;11507;44.858;10.374;2023-09-19T02:09:59;18.90;99.90
22680;DHT22;11507;44.858;10.374;2023-09-19T02:12:26;18.90;99.90
22680;DHT22;11507;44.858;10.374;2023-09-19T02:14:53;18.90;99.90
22680;DHT22;11507;44.858;10.374;2023-09-19T02:17:19;18.90;99.90
22680;DHT22;11507;44.858;10.374;2023-09-19T02:19:45;18.80;99.90
22680;DHT22;11507;44.858;10.374;2023-09-19T02:22:12;18.80;99.90
22680;DHT22;11507;44.858;10.374;2023-09-19T02:24:40;18.80;99.90
22680;DHT22;11507;44.858;10.374;2023-09-19T02:27:06;18.70;99.90
22680;DHT22;11507;44.858;10.374;2023-09-19T02:29:33;18.60;99.90
22680;DHT22;11507;44.858;10.374;2023-09-19T02:32:00;18.60;99.90
22680;DHT22;11507;44.858;10.374;2023-09-19T02:34:27;18.60;99.90
22680;DHT22;11507;44.858;10.374;2023-09-19T02:36:53;18.60;99.90
22680;DHT22;11507;44.858;10.374;2023-09-19T02:39:22;18.60;99.90
22680;DHT22;11507;44.858;10.374;2023-09-19T02:41:49;18.50;99.90
22680;DHT22;11507;44.858;10.374;2023-09-19T02:44:16;18.50;99.90
22680;DHT22;11507;44.858;10.374;2023-09-19T02:46:42;18.50;99.90
22680;DHT22;11507;44.858;10.374;2023-09-19T02:49:08;18.40;99.90
22680;DHT22;11507;44.858;10.374;2023-09-19T02:51:34;18.40;99.90
22680;DHT22;11507;44.858;10.374;2023-09-19T02:54:00;18.30;99.90
22680;DHT22;11507;44.858;10.374;2023-09-19T02:56:29;18.20;99.90
22680;DHT22;11507;44.858;10.374;2023-09-19T02:58:58;18.10;99.90
22680;DHT22;11507;44.858;10.374;2023-09-19T03:01:27;18.10;99.90
22680;DHT22;11507;44.858;10.374;2023-09-19T03:03:56;18.00;99.90
22680;DHT22;11507;44.858;10.374;2023-09-19T03:06:22;18.00;99.90
22680;DHT22;11507;44.858;10.374;2023-09-19T03:08:50;18.00;99.90
22680;DHT22;11507;44.858;10.374;2023-09-19T03:11:19;17.90;99.90
22680;DHT22;11507;44.858;10.374;2023-09-19T03:13:52;17.90;99.90
22680;DHT22;11507;44.858;10.374;2023-09-19T03:16:20;17.90;99.90
22680;DHT22;11507;44.858;10.374;2023-09-19T03:18:49;17.80;99.90
22680;DHT22;11507;44.858;10.374;2023-09-19T03:21:16;17.80;99.90
22680;DHT22;11507;44.858;10.374;2023-09-19T03:23:43;17.80;99.90
22680;DHT22;11507;44.858;10.374;2023-09-19T03:26:13;17.80;99.90
22680;DHT22;11507;44.858;10.374;2023-09-19T03:28:43;17.80;99.90
22680;DHT22;11507;44.858;10.374;2023-09-19T03:31:10;17.70;99.90
22680;DHT22;11507;44.858;10.374;2023-09-19T03:33:36;17.70;99.90
22680;DHT22;11507;44.858;10.374;2023-09-19T03:36:04;17.60;99.90
22680;DHT22;11507;44.858;10.374;2023-09-19T03:38:32;17.60;99.90
22680;DHT22;11507;44.858;10.374;2023-09-19T03:40:58;17.50;99.90
22680;DHT22;11507;44.858;10.374;2023-09-19T03:43:25;17.50;99.90
22680;DHT22;11507;44.858;10.374;2023-09-19T03:45:52;17.40;99.90
22680;DHT22;11507;44.858;10.374;2023-09-19T03:48:21;17.40;99.90
22680;DHT22;11507;44.858;10.374;2023-09-19T03:50:51;17.40;99.90
22680;DHT22;11507;44.858;10.374;2023-09-19T03:53:18;17.40;99.90
22680;DHT22;11507;44.858;10.374;2023-09-19T03:55:45;17.30;99.90
22680;DHT22;11507;44.858;10.374;2023-09-19T03:58:12;17.30;99.90
22680;DHT22;11507;44.858;10.374;2023-09-19T04:00:39;17.30;99.90
22680;DHT22;11507;44.858;10.374;2023-09-19T04:03:05;17.40;99.90
22680;DHT22;11507;44.858;10.374;2023-09-19T04:05:32;17.30;99.90
22680;DHT22;11507;44.858;10.374;2023-09-19T04:08:00;17.20;99.90
22680;DHT22;11507;44.858;10.374;2023-09-19T04:10:26;17.20;99.90
22680;DHT22;11507;44.858;10.374;2023-09-19T04:12:55;17.10;99.90
22680;DHT22;11507;44.858;10.374;2023-09-19T04:15:23;17.10;99.90
22680;DHT22;11507;44.858;10.374;2023-09-19T04:17:51;17.10;99.90
22680;DHT22;11507;44.858;10.374;2023-09-19T04:20:18;17.10;99.90
22680;DHT22;11507;44.858;10.374;2023-09-19T04:22:46;17.00;99.90
22680;DHT22;11507;44.858;10.374;2023-09-19T04:25:13;17.10;99.90
22680;DHT22;11507;44.858;10.374;2023-09-19T04:27:39;17.20;99.90
22680;DHT22;11507;44.858;10.374;2023-09-19T04:30:07;17.30;99.90
22680;DHT22;11507;44.858;10.374;2023-09-19T04:32:38;17.50;99.90
22680;DHT22;11507;44.858;10.374;2023-09-19T04:35:11;17.50;99.90
22680;DHT22;11507;44.858;10.374;2023-09-19T04:37:38;17.60;99.90
22680;DHT22;11507;44.858;10.374;2023-09-19T04:40:09;17.80;99.90
22680;DHT22;11507;44.858;10.374;2023-09-19T04:42:58;17.70;99.90
22680;DHT22;11507;44.858;10.374;2023-09-19T04:45:27;17.80;99.90
22680;DHT22;11507;44.858;10.374;2023-09-19T04:47:54;17.70;99.90
22680;DHT22;11507;44.858;10.374;2023-09-19T04:50:20;17.70;99.90
22680;DHT22;11507;44.858;10.374;2023-09-19T04:52:51;17.70;99.90
22680;DHT22;11507;44.858;10.374;2023-09-19T04:55:18;17.60;99.90
22680;DHT22;11507;44.858;10.374;2023-09-19T04:57:46;17.60;99.90
22680;DHT22;11507;44.858;10.374;2023-09-19T05:00:14;17.60;99.90
22680;DHT22;11507;44.858;10.374;2023-09-19T05:02:43;17.60;99.90
22680;DHT22;11507;44.858;10.374;2023-09-19T05:05:10;17.60;99.90
22680;DHT22;11507;44.858;10.374;2023-09-19T05:07:39;17.60;99.90
22680;DHT22;11507;44.858;10.374;2023-09-19T05:10:05;17.50;99.90
22680;DHT22;11507;44.858;10.374;2023-09-19T05:12:35;17.40;99.90
22680;DHT22;11507;44.858;10.374;2023-09-19T05:15:05;17.30;99.90
22680;DHT22;11507;44.858;10.374;2023-09-19T05:17:35;17.30;99.90
22680;DHT22;11507;44.858;10.374;2023-09-19T05:20:02;17.30;99.90
22680;DHT22;11507;44.858;10.374;2023-09-19T05:22:44;17.30;99.90
22680;DHT22;11507;44.858;10.374;2023-09-19T05:25:12;17.30;99.90
22680;DHT22;11507;44.858;10.374;2023-09-19T05:27:44;17.30;99.90
22680;DHT22;11507;44.858;10.374;2023-09-19T05:30:11;17.40;99.90
22680;DHT22;11507;44.858;10.374;2023-09-19T05:32:39;17.50;99.90
22680;DHT22;11507;44.858;10.374;2023-09-19T05:35:06;17.50;99.90
22680;DHT22;11507;44.858;10.374;2023-09-19T05:37:35;17.60;99.90
22680;DHT22;11507;44.858;10.374;2023-09-19T05:40:02;17.60;99.90
22680;DHT22;11507;44.858;10.374;2023-09-19T05:42:33;17.70;99.90
22680;DHT22;11507;44.858;10.374;2023-09-19T05:44:59;17.80;99.90
22680;DHT22;11507;44.858;10.374;2023-09-19T05:47:25;17.90;99.90
22680;DHT22;11507;44.858;10.374;2023-09-19T05:49:51;18.00;99.90
22680;DHT22;11507;44.858;10.374;2023-09-19T05:52:18;18.10;99.90
22680;DHT22;11507;44.858;10.374;2023-09-19T05:54:44;18.10;99.90
22680;DHT22;11507;44.858;10.374;2023-09-19T05:57:10;18.20;99.90
22680;DHT22;11507;44.858;10.374;2023-09-19T05:59:38;18.30;99.90
22680;DHT22;11507;44.858;10.374;2023-09-19T06:02:05;18.50;99.90
22680;DHT22;11507;44.858;10.374;2023-09-19T06:04:32;18.70;99.90
22680;DHT22;11507;44.858;10.374;2023-09-19T06:06:58;18.80;99.90
22680;DHT22;11507;44.858;10.374;2023-09-19T06:09:24;19.00;99.90
22680;DHT22;11507;44.858;10.374;2023-09-19T06:11:51;19.10;99.90
22680;DHT22;11507;44.858;10.374;2023-09-19T06:14:18;19.30;99.90
22680;DHT22;11507;44.858;10.374;2023-09-19T06:16:44;19.40;99.90
22680;DHT22;11507;44.858;10.374;2023-09-19T06:19:11;19.60;99.90
22680;DHT22;11507;44.858;10.374;2023-09-19T06:21:37;19.70;99.90
22680;DHT22;11507;44.858;10.374;2023-09-19T06:24:04;19.80;99.90
22680;DHT22;11507;44.858;10.374;2023-09-19T06:26:31;19.90;99.90
22680;DHT22;11507;44.858;10.374;2023-09-19T06:28:58;20.00;99.90
22680;DHT22;11507;44.858;10.374;2023-09-19T06:31:25;20.00;99.90
22680;DHT22;11507;44.858;10.374;2023-09-19T06:33:54;20.10;99.90
22680;DHT22;11507;44.858;10.374;2023-09-19T06:36:20;20.20;99.90
22680;DHT22;11507;44.858;10.374;2023-09-19T06:38:47;20.30;99.90
22680;DHT22;11507;44.858;10.374;2023-09-19T06:41:14;20.40;99.90
22680;DHT22;11507;44.858;10.374;2023-09-19T06:43:43;20.40;99.90
22680;DHT22;11507;44.858;10.374;2023-09-19T06:46:09;20.50;99.90
22680;DHT22;11507;44.858;10.374;2023-09-19T06:48:36;20.60;99.90
22680;DHT22;11507;44.858;10.374;2023-09-19T06:51:02;20.70;99.90
22680;DHT22;11507;44.858;10.374;2023-09-19T06:53:34;20.80;99.90
22680;DHT22;11507;44.858;10.374;2023-09-19T06:56:02;20.80;99.90
22680;DHT22;11507;44.858;10.374;2023-09-19T06:58:28;20.90;99.90
22680;DHT22;11507;44.858;10.374;2023-09-19T07:00:54;20.90;99.90
22680;DHT22;11507;44.858;10.374;2023-09-19T07:03:20;21.00;99.90
22680;DHT22;11507;44.858;10.374;2023-09-19T07:05:49;21.10;99.90
22680;DHT22;11507;44.858;10.374;2023-09-19T07:08:15;21.20;99.90
22680;DHT22;11507;44.858;10.374;2023-09-19T07:10:42;21.30;99.90
22680;DHT22;11507;44.858;10.374;2023-09-19T07:13:18;21.40;99.90
22680;DHT22;11507;44.858;10.374;2023-09-19T07:15:45;21.50;99.90
22680;DHT22;11507;44.858;10.374;2023-09-19T07:18:16;21.60;99.90
22680;DHT22;11507;44.858;10.374;2023-09-19T07:20:44;21.60;99.90
22680;DHT22;11507;44.858;10.374;2023-09-19T07:25:44;21.90;99.90
22680;DHT22;11507;44.858;10.374;2023-09-19T07:28:10;22.00;99.90
22680;DHT22;11507;44.858;10.374;2023-09-19T07:30:37;22.30;99.90
22680;DHT22;11507;44.858;10.374;2023-09-19T07:33:03;22.50;99.90
22680;DHT22;11507;44.858;10.374;2023-09-19T07:35:31;22.70;99.90
22680;DHT22;11507;44.858;10.374;2023-09-19T07:37:58;22.70;99.90
22680;DHT22;11507;44.858;10.374;2023-09-19T07:40:27;23.00;99.90
22680;DHT22;11507;44.858;10.374;2023-09-19T07:42:58;23.20;99.90
22680;DHT22;11507;44.858;10.374;2023-09-19T07:45:28;23.40;99.90
22680;DHT22;11507;44.858;10.374;2023-09-19T07:47:55;23.50;99.90
22680;DHT22;11507;44.858;10.374;2023-09-19T07:50:22;23.70;99.90
22680;DHT22;11507;44.858;10.374;2023-09-19T07:52:49;23.80;99.90
22680;DHT22;11507;44.858;10.374;2023-09-19T07:55:17;23.70;99.90
22680;DHT22;11507;44.858;10.374;2023-09-19T07:57:45;23.50;99.90
22680;DHT22;11507;44.858;10.374;2023-09-19T08:00:13;23.30;99.90
22680;DHT22;11507;44.858;10.374;2023-09-19T08:02:41;23.10;99.90
22680;DHT22;11507;44.858;10.374;2023-09-19T08:05:11;22.90;99.90
22680;DHT22;11507;44.858;10.374;2023-09-19T08:07:39;22.90;99.90
22680;DHT22;11507;44.858;10.374;2023-09-19T08:10:06;23.00;99.90
22680;DHT22;11507;44.858;10.374;2023-09-19T08:12:39;23.10;99.90
22680;DHT22;11507;44.858;10.374;2023-09-19T08:15:16;23.30;99.90
22680;DHT22;11507;44.858;10.374;2023-09-19T08:17:43;23.50;99.90
22680;DHT22;11507;44.858;10.374;2023-09-19T08:20:11;23.80;99.90
22680;DHT22;11507;44.858;10.374;2023-09-19T08:22:48;24.10;99.90
22680;DHT22;11507;44.858;10.374;2023-09-19T08:25:18;24.20;99.90
22680;DHT22;11507;44.858;10.374;2023-09-19T08:27:48;24.30;99.90
22680;DHT22;11507;44.858;10.374;2023-09-19T08:30:16;24.30;99.90
22680;DHT22;11507;44.858;10.374;2023-09-19T08:32:43;24.40;99.90
22680;DHT22;11507;44.858;10.374;2023-09-19T08:35:13;24.70;99.90
22680;DHT22;11507;44.858;10.374;2023-09-19T08:37:40;24.90;99.90
22680;DHT22;11507;44.858;10.374;2023-09-19T08:40:06;25.00;99.90
22680;DHT22;11507;44.858;10.374;2023-09-19T08:42:55;25.30;99.90
22680;DHT22;11507;44.858;10.374;2023-09-19T08:45:23;25.50;99.90
22680;DHT22;11507;44.858;10.374;2023-09-19T08:50:39;26.10;99.90
22680;DHT22;11507;44.858;10.374;2023-09-19T08:53:50;26.30;99.90
22680;DHT22;11507;44.858;10.374;2023-09-19T08:56:11;26.70;99.90
22680;DHT22;11507;44.858;10.374;2023-09-19T08:58:53;27.10;99.90
22680;DHT22;11507;44.858;10.374;2023-09-19T09:01:22;27.30;99.90
22680;DHT22;11507;44.858;10.374;2023-09-19T09:03:55;27.70;99.90
22680;DHT22;11507;44.858;10.374;2023-09-19T09:06:22;28.10;99.90
22680;DHT22;11507;44.858;10.374;2023-09-19T09:08:50;28.20;99.90
22680;DHT22;11507;44.858;10.374;2023-09-19T09:11:18;28.30;99.90
22680;DHT22;11507;44.858;10.374;2023-09-19T09:13:45;28.20;99.90
22680;DHT22;11507;44.858;10.374;2023-09-19T09:16:13;28.30;99.90
22680;DHT22;11507;44.858;10.374;2023-09-19T09:18:40;28.60;99.90
22680;DHT22;11507;44.858;10.374;2023-09-19T09:21:06;28.90;99.90
22680;DHT22;11507;44.858;10.374;2023-09-19T09:23:33;29.30;99.90
22680;DHT22;11507;44.858;10.374;2023-09-19T09:25:59;29.70;99.90
22680;DHT22;11507;44.858;10.374;2023-09-19T09:28:31;29.80;99.90
22680;DHT22;11507;44.858;10.374;2023-09-19T09:31:00;30.30;99.90
22680;DHT22;11507;44.858;10.374;2023-09-19T09:33:34;30.90;99.90
22680;DHT22;11507;44.858;10.374;2023-09-19T09:36:02;31.40;99.90
22680;DHT22;11507;44.858;10.374;2023-09-19T09:38:30;31.80;99.90
22680;DHT22;11507;44.858;10.374;2023-09-19T09:41:09;32.20;99.90
22680;DHT22;11507;44.858;10.374;2023-09-19T09:43:37;32.70;99.90
22680;DHT22;11507;44.858;10.374;2023-09-19T09:46:15;33.20;99.40
22680;DHT22;11507;44.858;10.374;2023-09-19T09:48:58;33.70;97.90
22680;DHT22;11507;44.858;10.374;2023-09-19T09:52:05;33.90;96.20
22680;DHT22;11507;44.858;10.374;2023-09-19T09:54:34;34.10;96.60
22680;DHT22;11507;44.858;10.374;2023-09-19T09:57:09;34.10;94.70
22680;DHT22;11507;44.858;10.374;2023-09-19T09:59:50;33.60;93.10
22680;DHT22;11507;44.858;10.374;2023-09-19T10:02:17;33.40;95.40
22680;DHT22;11507;44.858;10.374;2023-09-19T10:04:53;33.70;94.60
22680;DHT22;11507;44.858;10.374;2023-09-19T10:07:30;34.00;93.90
22680;DHT22;11507;44.858;10.374;2023-09-19T10:10:02;34.30;94.50
22680;DHT22;11507;44.858;10.374;2023-09-19T10:12:48;34.80;93.60
22680;DHT22;11507;44.858;10.374;2023-09-19T10:15:16;34.70;89.00
22680;DHT22;11507;44.858;10.374;2023-09-19T10:17:46;34.50;91.10
22680;DHT22;11507;44.858;10.374;2023-09-19T10:20:17;34.80;91.30
22680;DHT22;11507;44.858;10.374;2023-09-19T10:23:08;35.20;92.10
22680;DHT22;11507;44.858;10.374;2023-09-19T10:25:47;35.80;88.30
22680;DHT22;11507;44.858;10.374;2023-09-19T10:28:16;36.10;89.40
22680;DHT22;11507;44.858;10.374;2023-09-19T10:30:47;36.30;86.50
22680;DHT22;11507;44.858;10.374;2023-09-19T10:33:16;37.00;89.20
22680;DHT22;11507;44.858;10.374;2023-09-19T10:35:44;37.50;89.20
22680;DHT22;11507;44.858;10.374;2023-09-19T10:38:12;37.70;81.20
22680;DHT22;11507;44.858;10.374;2023-09-19T10:40:39;37.80;82.50
22680;DHT22;11507;44.858;10.374;2023-09-19T10:43:15;38.10;79.50
22680;DHT22;11507;44.858;10.374;2023-09-19T10:45:45;38.30;78.20
22680;DHT22;11507;44.858;10.374;2023-09-19T10:48:12;38.50;75.50
22680;DHT22;11507;44.858;10.374;2023-09-19T10:51:05;38.60;76.70
22680;DHT22;11507;44.858;10.374;2023-09-19T10:53:47;38.40;74.50
22680;DHT22;11507;44.858;10.374;2023-09-19T10:56:21;38.00;73.00
22680;DHT22;11507;44.858;10.374;2023-09-19T10:58:49;37.50;77.00
22680;DHT22;11507;44.858;10.374;2023-09-19T11:01:16;37.90;77.50
22680;DHT22;11507;44.858;10.374;2023-09-19T11:03:43;37.90;73.20
22680;DHT22;11507;44.858;10.374;2023-09-19T11:06:11;37.80;75.90
22680;DHT22;11507;44.858;10.374;2023-09-19T11:30:42;39.80;62.80
22680;DHT22;11507;44.858;10.374;2023-09-19T11:33:27;40.10;63.10
22680;DHT22;11507;44.858;10.374;2023-09-19T11:36:13;40.20;59.50
22680;DHT22;11507;44.858;10.374;2023-09-19T11:43:49;40.50;63.00
22680;DHT22;11507;44.858;10.374;2023-09-19T11:46:21;40.70;63.10
22680;DHT22;11507;44.858;10.374;2023-09-19T11:48:51;41.10;58.90
22680;DHT22;11507;44.858;10.374;2023-09-19T11:51:19;41.50;59.60
22680;DHT22;11507;44.858;10.374;2023-09-19T11:53:50;41.20;56.00
22680;DHT22;11507;44.858;10.374;2023-09-19T11:56:18;41.30;59.40
22680;DHT22;11507;44.858;10.374;2023-09-19T11:58:46;41.80;57.50
22680;DHT22;11507;44.858;10.374;2023-09-19T12:01:31;41.10;55.40
22680;DHT22;11507;44.858;10.374;2023-09-19T12:04:01;40.70;57.90
22680;DHT22;11507;44.858;10.374;2023-09-19T12:06:30;40.80;56.30
22680;DHT22;11507;44.858;10.374;2023-09-19T12:08:58;41.20;58.10
22680;DHT22;11507;44.858;10.374;2023-09-19T12:11:29;41.40;58.30
22680;DHT22;11507;44.858;10.374;2023-09-19T12:13:59;42.10;55.50
22680;DHT22;11507;44.858;10.374;2023-09-19T12:16:29;41.90;52.90
22680;DHT22;11507;44.858;10.374;2023-09-19T12:18:57;41.20;54.80
22680;DHT22;11507;44.858;10.374;2023-09-19T12:21:25;40.70;54.20
22680;DHT22;11507;44.858;10.374;2023-09-19T12:24:03;41.00;53.90
22680;DHT22;11507;44.858;10.374;2023-09-19T12:26:43;41.30;53.70
22680;DHT22;11507;44.858;10.374;2023-09-19T12:29:18;41.40;53.40
22680;DHT22;11507;44.858;10.374;2023-09-19T12:31:49;41.80;53.20
22680;DHT22;11507;44.858;10.374;2023-09-19T12:34:31;41.50;53.60
22680;DHT22;11507;44.858;10.374;2023-09-19T12:37:14;41.80;54.00
22680;DHT22;11507;44.858;10.374;2023-09-19T12:40:04;42.40;54.50
22680;DHT22;11507;44.858;10.374;2023-09-19T12:42:42;42.60;51.40
22680;DHT22;11507;44.858;10.374;2023-09-19T12:45:08;42.40;50.70
22680;DHT22;11507;44.858;10.374;2023-09-19T12:47:35;42.20;51.40
22680;DHT22;11507;44.858;10.374;2023-09-19T12:50:15;42.20;52.80
22680;DHT22;11507;44.858;10.374;2023-09-19T12:52:49;42.40;50.10
22680;DHT22;11507;44.858;10.374;2023-09-19T13:00:36;44.10;49.80
22680;DHT22;11507;44.858;10.374;2023-09-19T13:03:15;44.30;50.00
22680;DHT22;11507;44.858;10.374;2023-09-19T13:05:50;44.90;49.30
22680;DHT22;11507;44.858;10.374;2023-09-19T13:08:31;45.40;48.00
22680;DHT22;11507;44.858;10.374;2023-09-19T13:13:40;44.10;45.80
22680;DHT22;11507;44.858;10.374;2023-09-19T13:16:07;43.60;47.80
22680;DHT22;11507;44.858;10.374;2023-09-19T13:18:49;43.70;49.20
22680;DHT22;11507;44.858;10.374;2023-09-19T13:21:33;43.50;48.20
22680;DHT22;11507;44.858;10.374;2023-09-19T13:24:21;43.80;48.80
22680;DHT22;11507;44.858;10.374;2023-09-19T13:26:49;44.30;46.70
22680;DHT22;11507;44.858;10.374;2023-09-19T13:29:15;44.90;46.70
22680;DHT22;11507;44.858;10.374;2023-09-19T13:31:48;45.20;45.40
22680;DHT22;11507;44.858;10.374;2023-09-19T13:34:14;45.60;45.60
22680;DHT22;11507;44.858;10.374;2023-09-19T13:36:42;45.50;45.50
22680;DHT22;11507;44.858;10.374;2023-09-19T13:39:08;45.20;44.60
22680;DHT22;11507;44.858;10.374;2023-09-19T13:41:35;45.10;46.20
22680;DHT22;11507;44.858;10.374;2023-09-19T13:44:05;45.60;46.10
22680;DHT22;11507;44.858;10.374;2023-09-19T13:46:31;45.70;44.20
22680;DHT22;11507;44.858;10.374;2023-09-19T13:49:01;46.10;43.70
22680;DHT22;11507;44.858;10.374;2023-09-19T13:51:30;46.20;42.70
22680;DHT22;11507;44.858;10.374;2023-09-19T13:53:56;45.90;41.90
22680;DHT22;11507;44.858;10.374;2023-09-19T13:56:23;45.30;44.40
22680;DHT22;11507;44.858;10.374;2023-09-19T13:58:50;45.30;44.70
22680;DHT22;11507;44.858;10.374;2023-09-19T14:01:17;45.20;44.80
22680;DHT22;11507;44.858;10.374;2023-09-19T14:03:43;45.20;44.90
22680;DHT22;11507;44.858;10.374;2023-09-19T14:06:16;45.40;44.50
22680;DHT22;11507;44.858;10.374;2023-09-19T14:08:43;45.40;43.00
22680;DHT22;11507;44.858;10.374;2023-09-19T14:11:13;43.80;43.20
22680;DHT22;11507;44.858;10.374;2023-09-19T14:13:40;43.40;46.70
22680;DHT22;11507;44.858;10.374;2023-09-19T14:16:09;43.50;46.40
22680;DHT22;11507;44.858;10.374;2023-09-19T14:18:35;43.60;46.80
22680;DHT22;11507;44.858;10.374;2023-09-19T14:21:05;43.90;46.60
22680;DHT22;11507;44.858;10.374;2023-09-19T14:23:38;44.10;46.60
22680;DHT22;11507;44.858;10.374;2023-09-19T14:26:05;44.20;45.90
22680;DHT22;11507;44.858;10.374;2023-09-19T14:28:32;44.20;45.40
22680;DHT22;11507;44.858;10.374;2023-09-19T14:31:09;44.20;45.20
22680;DHT22;11507;44.858;10.374;2023-09-19T14:33:36;43.90;45.70
22680;DHT22;11507;44.858;10.374;2023-09-19T14:36:03;43.80;45.30
22680;DHT22;11507;44.858;10.374;2023-09-19T14:38:33;43.50;45.40
22680;DHT22;11507;44.858;10.374;2023-09-19T14:41:00;43.40;46.10
22680;DHT22;11507;44.858;10.374;2023-09-19T14:43:27;43.00;47.30
22680;DHT22;11507;44.858;10.374;2023-09-19T14:45:55;42.80;47.20
22680;DHT22;11507;44.858;10.374;2023-09-19T14:48:23;42.50;47.10
22680;DHT22;11507;44.858;10.374;2023-09-19T14:50:52;42.40;47.60
22680;DHT22;11507;44.858;10.374;2023-09-19T14:53:19;42.20;47.40
22680;DHT22;11507;44.858;10.374;2023-09-19T14:55:45;42.20;47.10
22680;DHT22;11507;44.858;10.374;2023-09-19T14:58:14;42.20;48.40
22680;DHT22;11507;44.858;10.374;2023-09-19T15:00:40;42.50;47.60
22680;DHT22;11507;44.858;10.374;2023-09-19T15:03:06;42.40;47.50
22680;DHT22;11507;44.858;10.374;2023-09-19T15:05:32;42.50;46.70
22680;DHT22;11507;44.858;10.374;2023-09-19T15:08:00;42.50;47.80
22680;DHT22;11507;44.858;10.374;2023-09-19T15:10:26;42.60;47.10
22680;DHT22;11507;44.858;10.374;2023-09-19T15:12:52;42.70;46.30
22680;DHT22;11507;44.858;10.374;2023-09-19T15:15:18;42.60;45.90
22680;DHT22;11507;44.858;10.374;2023-09-19T15:17:44;42.40;46.50
22680;DHT22;11507;44.858;10.374;2023-09-19T15:20:11;42.20;47.10
22680;DHT22;11507;44.858;10.374;2023-09-19T15:22:40;42.00;48.20
22680;DHT22;11507;44.858;10.374;2023-09-19T15:25:06;41.70;48.20
22680;DHT22;11507;44.858;10.374;2023-09-19T15:27:32;41.70;48.60
22680;DHT22;11507;44.858;10.374;2023-09-19T15:30:02;41.60;48.10
22680;DHT22;11507;44.858;10.374;2023-09-19T15:32:31;41.30;48.90
22680;DHT22;11507;44.858;10.374;2023-09-19T15:34:58;41.20;48.80
22680;DHT22;11507;44.858;10.374;2023-09-19T15:37:24;41.10;48.40
22680;DHT22;11507;44.858;10.374;2023-09-19T15:39:52;40.80;49.30
22680;DHT22;11507;44.858;10.374;2023-09-19T15:42:19;40.50;49.90
22680;DHT22;11507;44.858;10.374;2023-09-19T15:44:45;40.20;50.40
22680;DHT22;11507;44.858;10.374;2023-09-19T15:47:12;39.60;50.30
22680;DHT22;11507;44.858;10.374;2023-09-19T15:49:39;39.00;51.20
22680;DHT22;11507;44.858;10.374;2023-09-19T15:52:05;38.10;52.10
22680;DHT22;11507;44.858;10.374;2023-09-19T15:54:32;37.00;54.70
22680;DHT22;11507;44.858;10.374;2023-09-19T15:56:59;35.90;56.10
22680;DHT22;11507;44.858;10.374;2023-09-19T15:59:25;34.80;58.60
22680;DHT22;11507;44.858;10.374;2023-09-19T16:01:52;34.00;59.80
22680;DHT22;11507;44.858;10.374;2023-09-19T16:04:18;33.30;61.40
22680;DHT22;11507;44.858;10.374;2023-09-19T16:06:45;32.80;62.90
22680;DHT22;11507;44.858;10.374;2023-09-19T16:09:11;32.40;64.40
22680;DHT22;11507;44.858;10.374;2023-09-19T16:11:37;32.00;66.70
22680;DHT22;11507;44.858;10.374;2023-09-19T16:14:04;31.80;68.90
22680;DHT22;11507;44.858;10.374;2023-09-19T16:16:32;31.50;69.30
22680;DHT22;11507;44.858;10.374;2023-09-19T16:19:01;31.30;69.30
22680;DHT22;11507;44.858;10.374;2023-09-19T16:21:31;31.10;69.70
22680;DHT22;11507;44.858;10.374;2023-09-19T16:23:59;30.90;69.70
22680;DHT22;11507;44.858;10.374;2023-09-19T16:26:27;30.70;70.70
22680;DHT22;11507;44.858;10.374;2023-09-19T16:28:56;30.60;71.60
22680;DHT22;11507;44.858;10.374;2023-09-19T16:31:27;30.40;72.50